sensor_id;sensor_type;location;lat;lon;timestamp;pressure;altitude;pressure_sealevel;temperature;humidity
51099;BME280;37146;48.210;16.234;2023-02-28T00:02:13;99773.81;;;-1.38;79.54
51099;BME280;37146;48.210;16.234;2023-02-28T00:04:39;99783.34;;;-1.48;79.15
51099;BME280;37146;48.210;16.234;2023-02-28T00:07:04;99776.38;;;-1.46;80.00
51099;BME280;37146;48.210;16.234;2023-02-28T00:09:29;99783.31;;;-1.51;80.81
51099;BME280;37146;48.210;16.234;2023-02-28T00:11:54;99779.94;;;-1.36;82.48
51099;BME280;37146;48.210;16.234;2023-02-28T00:14:19;99780.75;;;-1.42;81.31
51099;BME280;37146;48.210;16.234;2023-02-28T00:16:45;99786.78;;;-1.52;82.20
51099;BME280;37146;48.210;16.234;2023-02-28T00:19:10;99788.44;;;-1.63;82.58
51099;BME280;37146;48.210;16.234;2023-02-28T00:21:38;99781.31;;;-1.74;81.33
51099;BME280;37146;48.210;16.234;2023-02-28T00:24:05;99779.69;;;-1.65;81.85
51099;BME280;37146;48.210;16.234;2023-02-28T00:26:31;99783.94;;;-1.74;82.83
51099;BME280;37146;48.210;16.234;2023-02-28T00:28:56;99787.41;;;-1.78;83.43
51099;BME280;37146;48.210;16.234;2023-02-28T00:31:21;99785.81;;;-1.65;83.26
51099;BME280;37146;48.210;16.234;2023-02-28T00:33:47;99788.19;;;-1.88;83.86
51099;BME280;37146;48.210;16.234;2023-02-28T00:36:12;99781.31;;;-1.75;85.26
51099;BME280;37146;48.210;16.234;2023-02-28T00:38:38;99789.91;;;-1.87;83.38
51099;BME280;37146;48.210;16.234;2023-02-28T00:41:03;99783.03;;;-1.76;85.96
51099;BME280;37146;48.210;16.234;2023-02-28T00:43:29;99791.56;;;-1.95;84.17
51099;BME280;37146;48.210;16.234;2023-02-28T00:45:55;99788.84;;;-2.03;84.36
51099;BME280;37146;48.210;16.234;2023-02-28T00:48:20;99785.25;;;-2.13;84.46
51099;BME280;37146;48.210;16.234;2023-02-28T00:50:48;99785.28;;;-2.11;84.12
51099;BME280;37146;48.210;16.234;2023-02-28T00:53:13;99780.94;;;-2.09;83.35
51099;BME280;37146;48.210;16.234;2023-02-28T00:55:38;99786.88;;;-2.24;84.89
51099;BME280;37146;48.210;16.234;2023-02-28T00:58:03;99786.13;;;-2.12;84.82
51099;BME280;37146;48.210;16.234;2023-02-28T01:00:29;99778.38;;;-2.05;85.91
51099;BME280;37146;48.210;16.234;2023-02-28T01:02:54;99779.94;;;-2.19;85.99
51099;BME280;37146;48.210;16.234;2023-02-28T01:05:19;99781.91;;;-2.01;87.66
51099;BME280;37146;48.210;16.234;2023-02-28T01:07:44;99776.59;;;-2.06;87.64
51099;BME280;37146;48.210;16.234;2023-02-28T01:10:10;99782.66;;;-2.11;89.24
51099;BME280;37146;48.210;16.234;2023-02-28T01:12:35;99786.97;;;-2.16;88.74
51099;BME280;37146;48.210;16.234;2023-02-28T01:15:00;99778.16;;;-2.23;88.97
51099;BME280;37146;48.210;16.234;2023-02-28T01:17:26;99780.72;;;-2.25;88.51
51099;BME280;37146;48.210;16.234;2023-02-28T01:19:52;99779.94;;;-2.19;88.77
51099;BME280;37146;48.210;16.234;2023-02-28T01:22:18;99777.44;;;-2.10;88.99
51099;BME280;37146;48.210;16.234;2023-02-28T01:24:43;99781.00;;;-2.03;89.79
51099;BME280;37146;48.210;16.234;2023-02-28T01:27:08;99786.19;;;-2.09;89.09
51099;BME280;37146;48.210;16.234;2023-02-28T01:29:33;99784.41;;;-2.10;89.93
51099;BME280;37146;48.210;16.234;2023-02-28T01:31:58;99790.56;;;-2.07;90.30
51099;BME280;37146;48.210;16.234;2023-02-28T01:34:24;99787.03;;;-2.12;90.35
51099;BME280;37146;48.210;16.234;2023-02-28T01:36:49;99788.81;;;-2.08;88.83
51099;BME280;37146;48.210;16.234;2023-02-28T01:39:15;99787.72;;;-2.25;89.14
51099;BME280;37146;48.210;16.234;2023-02-28T01:41:40;99785.38;;;-2.04;89.50
51099;BME280;37146;48.210;16.234;2023-02-28T01:46:32;99791.16;;;-2.29;87.54
51099;BME280;37146;48.210;16.234;2023-02-28T01:49:00;99787.03;;;-2.12;87.69
51099;BME280;37146;48.210;16.234;2023-02-28T01:51:28;99792.31;;;-2.07;87.59
51099;BME280;37146;48.210;16.234;2023-02-28T01:53:56;99795.97;;;-1.94;88.96
51099;BME280;37146;48.210;16.234;2023-02-28T01:56:25;99784.63;;;-1.92;88.32
51099;BME280;37146;48.210;16.234;2023-02-28T01:58:52;99786.53;;;-1.78;90.56
51099;BME280;37146;48.210;16.234;2023-02-28T02:01:18;99791.78;;;-1.78;89.48
51099;BME280;37146;48.210;16.234;2023-02-28T02:03:50;99785.47;;;-1.94;88.84
51099;BME280;37146;48.210;16.234;2023-02-28T02:06:24;99792.66;;;-1.78;89.76
51099;BME280;37146;48.210;16.234;2023-02-28T02:08:50;99790.03;;;-1.78;88.69
51099;BME280;37146;48.210;16.234;2023-02-28T02:11:17;99795.25;;;-1.79;87.93
51099;BME280;37146;48.210;16.234;2023-02-28T02:18:46;99786.63;;;-1.69;90.42
51099;BME280;37146;48.210;16.234;2023-02-28T02:21:18;99785.63;;;-1.80;89.45
51099;BME280;37146;48.210;16.234;2023-02-28T02:24:07;99788.19;;;-1.85;88.83
51099;BME280;37146;48.210;16.234;2023-02-28T02:31:43;99787.44;;;-1.75;89.62
51099;BME280;37146;48.210;16.234;2023-02-28T02:36:54;99787.47;;;-1.73;88.77
51099;BME280;37146;48.210;16.234;2023-02-28T02:39:27;99786.66;;;-1.66;90.05
51099;BME280;37146;48.210;16.234;2023-02-28T02:41:56;99782.47;;;-1.47;90.59
51099;BME280;37146;48.210;16.234;2023-02-28T02:44:27;99790.19;;;-1.62;88.41
51099;BME280;37146;48.210;16.234;2023-02-28T02:46:54;99783.94;;;-1.74;86.50
51099;BME280;37146;48.210;16.234;2023-02-28T02:49:25;99787.44;;;-1.75;84.45
51099;BME280;37146;48.210;16.234;2023-02-28T02:51:52;99782.22;;;-1.72;85.36
51099;BME280;37146;48.210;16.234;2023-02-28T02:54:29;99787.38;;;-1.81;82.63
51099;BME280;37146;48.210;16.234;2023-02-28T02:56:56;99784.84;;;-1.73;85.22
51099;BME280;37146;48.210;16.234;2023-02-28T02:59:21;99780.47;;;-1.74;84.33
51099;BME280;37146;48.210;16.234;2023-02-28T03:01:49;99779.50;;;-1.81;84.05
51099;BME280;37146;48.210;16.234;2023-02-28T03:04:19;99777.03;;;-1.67;85.07
51099;BME280;37146;48.210;16.234;2023-02-28T03:06:45;99783.09;;;-1.73;84.95
51099;BME280;37146;48.210;16.234;2023-02-28T03:09:10;99788.97;;;-1.95;82.25
51099;BME280;37146;48.210;16.234;2023-02-28T03:11:35;99782.13;;;-1.81;84.59
51099;BME280;37146;48.210;16.234;2023-02-28T03:14:17;99774.25;;;-1.82;83.40
51099;BME280;37146;48.210;16.234;2023-02-28T03:30:37;99781.13;;;-1.92;85.11
51099;BME280;37146;48.210;16.234;2023-02-28T03:35:34;99769.84;;;-1.88;85.17
51099;BME280;37146;48.210;16.234;2023-02-28T03:38:04;99775.00;;;-1.94;84.26
51099;BME280;37146;48.210;16.234;2023-02-28T03:40:32;99771.50;;;-1.93;85.21
51099;BME280;37146;48.210;16.234;2023-02-28T03:43:02;99768.09;;;-1.86;86.80
51099;BME280;37146;48.210;16.234;2023-02-28T03:45:30;99771.44;;;-1.99;85.25
51099;BME280;37146;48.210;16.234;2023-02-28T03:47:58;99772.16;;;-2.13;85.60
51099;BME280;37146;48.210;16.234;2023-02-28T03:50:47;99775.75;;;-2.05;86.52
51099;BME280;37146;48.210;16.234;2023-02-28T03:53:14;99772.28;;;-2.02;86.36
51099;BME280;37146;48.210;16.234;2023-02-28T03:55:54;99770.56;;;-2.00;88.29
51099;BME280;37146;48.210;16.234;2023-02-28T03:58:24;99766.13;;;-2.06;86.68
51099;BME280;37146;48.210;16.234;2023-02-28T04:00:55;99770.41;;;-2.14;85.48
51099;BME280;37146;48.210;16.234;2023-02-28T04:03:22;99776.34;;;-2.27;86.28
51099;BME280;37146;48.210;16.234;2023-02-28T04:05:52;99780.63;;;-2.34;86.22
51099;BME280;37146;48.210;16.234;2023-02-28T04:08:18;99777.91;;;-2.42;86.72
51099;BME280;37146;48.210;16.234;2023-02-28T04:10:43;99779.66;;;-2.41;87.17
51099;BME280;37146;48.210;16.234;2023-02-28T04:13:11;99775.31;;;-2.40;86.76
51099;BME280;37146;48.210;16.234;2023-02-28T04:15:36;99784.09;;;-2.35;85.26
51099;BME280;37146;48.210;16.234;2023-02-28T04:18:01;99778.97;;;-2.27;86.79
51099;BME280;37146;48.210;16.234;2023-02-28T04:20:27;99782.34;;;-2.36;87.23
51099;BME280;37146;48.210;16.234;2023-02-28T04:22:52;99791.03;;;-2.39;86.17
51099;BME280;37146;48.210;16.234;2023-02-28T04:25:18;99786.41;;;-2.58;86.82
51099;BME280;37146;48.210;16.234;2023-02-28T04:27:43;99784.72;;;-2.53;87.81
51099;BME280;37146;48.210;16.234;2023-02-28T04:30:09;99795.06;;;-2.62;88.65
51099;BME280;37146;48.210;16.234;2023-02-28T04:32:35;99786.53;;;-2.49;87.91
51099;BME280;37146;48.210;16.234;2023-02-28T04:35:00;99789.91;;;-2.59;88.40
51099;BME280;37146;48.210;16.234;2023-02-28T04:37:25;99803.84;;;-2.62;88.52
51099;BME280;37146;48.210;16.234;2023-02-28T04:39:53;99788.13;;;-2.60;88.17
51099;BME280;37146;48.210;16.234;2023-02-28T04:42:19;99787.22;;;-2.64;88.81
51099;BME280;37146;48.210;16.234;2023-02-28T04:44:44;99793.53;;;-2.48;89.73
51099;BME280;37146;48.210;16.234;2023-02-28T04:47:10;99791.72;;;-2.55;90.01
51099;BME280;37146;48.210;16.234;2023-02-28T04:49:35;99787.41;;;-2.50;91.25
51099;BME280;37146;48.210;16.234;2023-02-28T04:52:00;99788.06;;;-2.67;89.69
51099;BME280;37146;48.210;16.234;2023-02-28T04:54:25;99789.84;;;-2.62;89.55
51099;BME280;37146;48.210;16.234;2023-02-28T04:56:51;99787.16;;;-2.67;90.56
51099;BME280;37146;48.210;16.234;2023-02-28T04:59:16;99789.84;;;-2.64;90.62
51099;BME280;37146;48.210;16.234;2023-02-28T05:01:44;99794.09;;;-2.69;89.07
51099;BME280;37146;48.210;16.234;2023-02-28T05:04:10;99790.53;;;-2.76;89.10
51099;BME280;37146;48.210;16.234;2023-02-28T05:06:35;99799.00;;;-2.92;90.18
51099;BME280;37146;48.210;16.234;2023-02-28T05:09:00;99793.06;;;-2.82;91.51
51099;BME280;37146;48.210;16.234;2023-02-28T05:11:32;99788.81;;;-2.74;90.60
51099;BME280;37146;48.210;16.234;2023-02-28T05:14:04;99801.88;;;-2.77;91.55
51099;BME280;37146;48.210;16.234;2023-02-28T05:16:31;99794.75;;;-2.84;91.49
51099;BME280;37146;48.210;16.234;2023-02-28T05:18:56;99791.22;;;-2.89;92.02
51099;BME280;37146;48.210;16.234;2023-02-28T05:21:28;99789.44;;;-2.90;92.21
51099;BME280;37146;48.210;16.234;2023-02-28T05:23:54;99791.28;;;-2.83;91.70
51099;BME280;37146;48.210;16.234;2023-02-28T05:26:20;99784.09;;;-2.97;92.27
51099;BME280;37146;48.210;16.234;2023-02-28T05:28:45;99794.63;;;-2.95;93.09
51099;BME280;37146;48.210;16.234;2023-02-28T05:31:10;99792.72;;;-3.04;93.76
51099;BME280;37146;48.210;16.234;2023-02-28T05:33:36;99799.63;;;-3.09;93.38
51099;BME280;37146;48.210;16.234;2023-02-28T05:36:01;99794.53;;;-3.00;93.31
51099;BME280;37146;48.210;16.234;2023-02-28T05:38:26;99786.00;;;-2.86;93.13
51099;BME280;37146;48.210;16.234;2023-02-28T05:40:51;99793.66;;;-3.00;92.35
51099;BME280;37146;48.210;16.234;2023-02-28T05:43:18;99804.38;;;-3.37;92.63
51099;BME280;37146;48.210;16.234;2023-02-28T05:45:43;99805.06;;;-3.49;93.88
51099;BME280;37146;48.210;16.234;2023-02-28T05:48:11;99802.84;;;-3.26;94.40
51099;BME280;37146;48.210;16.234;2023-02-28T05:50:37;99811.53;;;-3.28;93.78
51099;BME280;37146;48.210;16.234;2023-02-28T05:53:02;99813.38;;;-3.22;94.17
51099;BME280;37146;48.210;16.234;2023-02-28T05:55:28;99813.66;;;-3.04;93.94
51099;BME280;37146;48.210;16.234;2023-02-28T05:57:53;99808.16;;;-3.19;93.59
51099;BME280;37146;48.210;16.234;2023-02-28T06:00:18;99815.28;;;-3.12;94.91
51099;BME280;37146;48.210;16.234;2023-02-28T06:02:44;99820.47;;;-3.14;95.11
51099;BME280;37146;48.210;16.234;2023-02-28T06:05:16;99816.97;;;-3.14;94.46
51099;BME280;37146;48.210;16.234;2023-02-28T06:07:41;99819.03;;;-2.96;96.38
51099;BME280;37146;48.210;16.234;2023-02-28T06:10:06;99828.78;;;-2.86;94.22
51099;BME280;37146;48.210;16.234;2023-02-28T06:12:32;99826.16;;;-2.87;93.62
51099;BME280;37146;48.210;16.234;2023-02-28T06:14:57;99825.19;;;-2.94;94.40
51099;BME280;37146;48.210;16.234;2023-02-28T06:17:22;99817.97;;;-3.06;93.83
51099;BME280;37146;48.210;16.234;2023-02-28T06:19:47;99828.63;;;-2.95;94.36
51099;BME280;37146;48.210;16.234;2023-02-28T06:22:13;99828.84;;;-2.81;94.16
51099;BME280;37146;48.210;16.234;2023-02-28T06:24:38;99833.44;;;-2.68;93.01
51099;BME280;37146;48.210;16.234;2023-02-28T06:27:03;99836.19;;;-2.58;93.47
51099;BME280;37146;48.210;16.234;2023-02-28T06:29:30;99826.56;;;-2.59;93.03
51099;BME280;37146;48.210;16.234;2023-02-28T06:31:56;99824.84;;;-2.57;92.70
51099;BME280;37146;48.210;16.234;2023-02-28T06:34:21;99833.63;;;-2.54;92.33
51099;BME280;37146;48.210;16.234;2023-02-28T06:36:46;99834.59;;;-2.49;93.23
51099;BME280;37146;48.210;16.234;2023-02-28T06:39:11;99846.97;;;-2.38;92.21
51099;BME280;37146;48.210;16.234;2023-02-28T06:41:36;99842.69;;;-2.31;91.67
51099;BME280;37146;48.210;16.234;2023-02-28T06:44:08;99838.38;;;-2.28;92.20
51099;BME280;37146;48.210;16.234;2023-02-28T06:46:36;99843.69;;;-2.20;91.86
51099;BME280;37146;48.210;16.234;2023-02-28T06:49:02;99853.47;;;-2.07;91.21
51099;BME280;37146;48.210;16.234;2023-02-28T06:51:28;99853.47;;;-2.07;90.77
51099;BME280;37146;48.210;16.234;2023-02-28T06:53:53;99849.31;;;-1.92;90.70
51099;BME280;37146;48.210;16.234;2023-02-28T06:56:18;99857.13;;;-1.95;89.87
51099;BME280;37146;48.210;16.234;2023-02-28T06:58:48;99845.03;;;-1.84;89.44
51099;BME280;37146;48.210;16.234;2023-02-28T07:01:14;99849.34;;;-1.88;89.25
51099;BME280;37146;48.210;16.234;2023-02-28T07:03:39;99848.50;;;-1.85;88.96
51099;BME280;37146;48.210;16.234;2023-02-28T07:06:05;99846.84;;;-1.80;88.64
51099;BME280;37146;48.210;16.234;2023-02-28T07:08:30;99850.41;;;-1.72;87.96
51099;BME280;37146;48.210;16.234;2023-02-28T07:10:56;99857.47;;;-1.66;87.89
51099;BME280;37146;48.210;16.234;2023-02-28T07:13:22;99854.81;;;-1.72;87.96
51099;BME280;37146;48.210;16.234;2023-02-28T07:15:54;99849.63;;;-1.64;87.64
51099;BME280;37146;48.210;16.234;2023-02-28T07:18:19;99849.56;;;-1.71;87.37
51099;BME280;37146;48.210;16.234;2023-02-28T07:20:44;99847.91;;;-1.64;86.49
51099;BME280;37146;48.210;16.234;2023-02-28T07:23:10;99845.31;;;-1.59;86.91
51099;BME280;37146;48.210;16.234;2023-02-28T07:25:35;99855.75;;;-1.62;86.39
51099;BME280;37146;48.210;16.234;2023-02-28T07:28:00;99847.03;;;-1.63;86.41
51099;BME280;37146;48.210;16.234;2023-02-28T07:30:25;99855.75;;;-1.62;85.38
51099;BME280;37146;48.210;16.234;2023-02-28T07:32:51;99850.75;;;-1.44;84.93
51099;BME280;37146;48.210;16.234;2023-02-28T07:35:16;99860.44;;;-1.36;84.79
51099;BME280;37146;48.210;16.234;2023-02-28T07:37:41;99871.81;;;-1.34;84.16
51099;BME280;37146;48.210;16.234;2023-02-28T07:40:09;99864.81;;;-1.35;83.72
51099;BME280;37146;48.210;16.234;2023-02-28T07:42:36;99869.38;;;-1.17;82.61
51099;BME280;37146;48.210;16.234;2023-02-28T07:45:01;99862.31;;;-1.21;82.52
51099;BME280;37146;48.210;16.234;2023-02-28T07:47:28;99873.78;;;-1.13;82.27
51099;BME280;37146;48.210;16.234;2023-02-28T07:49:53;99875.66;;;-1.00;81.93
51099;BME280;37146;48.210;16.234;2023-02-28T07:52:19;99876.56;;;-0.96;81.53
51099;BME280;37146;48.210;16.234;2023-02-28T07:54:44;99873.81;;;-1.12;80.99
51099;BME280;37146;48.210;16.234;2023-02-28T07:57:09;99883.44;;;-1.11;81.01
51099;BME280;37146;48.210;16.234;2023-02-28T07:59:34;99882.59;;;-1.08;81.06
51099;BME280;37146;48.210;16.234;2023-02-28T08:02:00;99880.94;;;-0.95;80.32
51099;BME280;37146;48.210;16.234;2023-02-28T08:04:25;99880.94;;;-0.95;80.14
51099;BME280;37146;48.210;16.234;2023-02-28T08:06:50;99879.25;;;-0.87;80.13
51099;BME280;37146;48.210;16.234;2023-02-28T08:09:18;99884.63;;;-0.76;79.44
51099;BME280;37146;48.210;16.234;2023-02-28T08:11:43;99889.84;;;-0.81;80.06
51099;BME280;37146;48.210;16.234;2023-02-28T08:14:08;99883.88;;;-0.55;78.45
51099;BME280;37146;48.210;16.234;2023-02-28T08:16:33;99884.03;;;-0.35;77.82
51099;BME280;37146;48.210;16.234;2023-02-28T08:18:58;99872.66;;;-0.34;77.97
51099;BME280;37146;48.210;16.234;2023-02-28T08:21:24;99879.88;;;0.03;76.58
51099;BME280;37146;48.210;16.234;2023-02-28T08:23:49;99877.09;;;-0.25;76.60
51099;BME280;37146;48.210;16.234;2023-02-28T08:26:16;99867.59;;;0.02;75.80
51099;BME280;37146;48.210;16.234;2023-02-28T08:28:41;99874.69;;;0.19;75.42
51099;BME280;37146;48.210;16.234;2023-02-28T08:31:07;99879.16;;;0.40;74.65
51099;BME280;37146;48.210;16.234;2023-02-28T08:33:32;99873.91;;;0.38;73.50
51099;BME280;37146;48.210;16.234;2023-02-28T08:35:58;99879.06;;;0.12;74.74
51099;BME280;37146;48.210;16.234;2023-02-28T08:38:23;99879.84;;;-0.03;75.70
51099;BME280;37146;48.210;16.234;2023-02-28T08:40:48;99886.97;;;0.23;74.45
51099;BME280;37146;48.210;16.234;2023-02-28T08:43:14;99885.41;;;0.65;74.23
51099;BME280;37146;48.210;16.234;2023-02-28T08:45:39;99883.59;;;0.49;73.33
51099;BME280;37146;48.210;16.234;2023-02-28T08:48:04;99890.69;;;0.84;73.40
51099;BME280;37146;48.210;16.234;2023-02-28T08:50:29;99895.13;;;1.08;72.09
51099;BME280;37146;48.210;16.234;2023-02-28T08:52:55;99893.41;;;1.26;70.66
51099;BME280;37146;48.210;16.234;2023-02-28T08:55:20;99878.28;;;2.22;68.83
51099;BME280;37146;48.210;16.234;2023-02-28T08:57:45;99885.88;;;2.92;65.36
51099;BME280;37146;48.210;16.234;2023-02-28T09:00:10;99886.50;;;3.27;62.98
51099;BME280;37146;48.210;16.234;2023-02-28T09:02:38;99889.63;;;2.52;65.26
51099;BME280;37146;48.210;16.234;2023-02-28T09:05:03;99896.56;;;2.69;63.79
51099;BME280;37146;48.210;16.234;2023-02-28T09:07:29;99881.63;;;3.78;61.22
51099;BME280;37146;48.210;16.234;2023-02-28T09:09:54;99881.31;;;4.09;59.08
51099;BME280;37146;48.210;16.234;2023-02-28T09:12:20;99886.88;;;2.71;63.56
51099;BME280;37146;48.210;16.234;2023-02-28T09:14:45;99885.25;;;2.42;63.64
51099;BME280;37146;48.210;16.234;2023-02-28T09:17:11;99878.34;;;3.53;62.98
51099;BME280;37146;48.210;16.234;2023-02-28T09:19:36;99889.19;;;3.22;61.45
51099;BME280;37146;48.210;16.234;2023-02-28T09:22:02;99877.06;;;3.96;60.45
51099;BME280;37146;48.210;16.234;2023-02-28T09:24:27;99877.81;;;3.09;61.93
51099;BME280;37146;48.210;16.234;2023-02-28T09:26:52;99876.56;;;3.55;60.85
51099;BME280;37146;48.210;16.234;2023-02-28T09:29:17;99878.06;;;3.81;61.09
51099;BME280;37146;48.210;16.234;2023-02-28T09:31:43;99870.31;;;3.64;60.72
51099;BME280;37146;48.210;16.234;2023-02-28T09:34:08;99883.75;;;4.28;59.62
51099;BME280;37146;48.210;16.234;2023-02-28T09:36:34;99881.31;;;3.14;62.57
51099;BME280;37146;48.210;16.234;2023-02-28T09:38:59;99880.09;;;3.55;61.06
51099;BME280;37146;48.210;16.234;2023-02-28T09:41:25;99891.16;;;2.87;62.87
51099;BME280;37146;48.210;16.234;2023-02-28T09:43:54;99895.03;;;3.60;61.70
51099;BME280;37146;48.210;16.234;2023-02-28T09:48:46;99886.59;;;3.11;61.99
51099;BME280;37146;48.210;16.234;2023-02-28T09:51:15;99889.59;;;3.75;61.52
51099;BME280;37146;48.210;16.234;2023-02-28T09:53:48;99888.41;;;4.07;59.50
51099;BME280;37146;48.210;16.234;2023-02-28T09:56:15;99891.34;;;3.76;60.77
51099;BME280;37146;48.210;16.234;2023-02-28T10:01:11;99887.22;;;4.33;59.71
51099;BME280;37146;48.210;16.234;2023-02-28T10:06:17;99876.88;;;5.38;56.49
51099;BME280;37146;48.210;16.234;2023-02-28T10:08:56;99877.00;;;6.73;54.20
51099;BME280;37146;48.210;16.234;2023-02-28T10:11:24;99873.28;;;7.21;50.60
51099;BME280;37146;48.210;16.234;2023-02-28T10:13:55;99875.81;;;8.59;50.28
51099;BME280;37146;48.210;16.234;2023-02-28T10:16:30;99875.22;;;7.85;50.14
51099;BME280;37146;48.210;16.234;2023-02-28T10:18:59;99883.69;;;6.91;50.33
51099;BME280;37146;48.210;16.234;2023-02-28T10:23:53;99883.91;;;6.81;50.18
51099;BME280;37146;48.210;16.234;2023-02-28T10:26:23;99880.75;;;7.41;49.38
51099;BME280;37146;48.210;16.234;2023-02-28T10:28:51;99888.94;;;6.55;50.99
51099;BME280;37146;48.210;16.234;2023-02-28T10:31:18;99880.97;;;6.94;51.51
51099;BME280;37146;48.210;16.234;2023-02-28T10:33:44;99885.38;;;6.95;51.05
51099;BME280;37146;48.210;16.234;2023-02-28T10:36:14;99887.81;;;7.42;50.64
51099;BME280;37146;48.210;16.234;2023-02-28T10:38:39;99864.34;;;7.60;50.60
51099;BME280;37146;48.210;16.234;2023-02-28T10:41:09;99869.47;;;5.58;53.33
51099;BME280;37146;48.210;16.234;2023-02-28T10:43:35;99871.72;;;4.71;56.33
51099;BME280;37146;48.210;16.234;2023-02-28T10:48:37;99860.31;;;4.66;57.72
51099;BME280;37146;48.210;16.234;2023-02-28T10:51:04;99857.13;;;4.40;59.15
51099;BME280;37146;48.210;16.234;2023-02-28T10:53:51;99857.19;;;6.03;55.36
51099;BME280;37146;48.210;16.234;2023-02-28T10:56:16;99848.75;;;5.79;54.33
51099;BME280;37146;48.210;16.234;2023-02-28T10:58:49;99861.28;;;4.60;58.08
51099;BME280;37146;48.210;16.234;2023-02-28T11:01:16;99844.19;;;6.74;53.71
51099;BME280;37146;48.210;16.234;2023-02-28T11:03:42;99837.78;;;5.99;56.21
51099;BME280;37146;48.210;16.234;2023-02-28T11:06:08;99854.06;;;5.29;56.10
51099;BME280;37146;48.210;16.234;2023-02-28T11:09:14;99846.88;;;4.09;59.15
51099;BME280;37146;48.210;16.234;2023-02-28T11:11:30;99845.75;;;4.30;59.32
51099;BME280;37146;48.210;16.234;2023-02-28T11:13:58;99843.53;;;3.95;60.00
51099;BME280;37146;48.210;16.234;2023-02-28T11:16:35;99849.47;;;4.83;57.24
51099;BME280;37146;48.210;16.234;2023-02-28T11:19:02;99842.28;;;4.25;58.58
51099;BME280;37146;48.210;16.234;2023-02-28T11:21:32;99838.25;;;4.63;57.67
51099;BME280;37146;48.210;16.234;2023-02-28T11:24:21;99823.03;;;4.76;57.21
51099;BME280;37146;48.210;16.234;2023-02-28T11:26:48;99818.19;;;5.58;55.20
51099;BME280;37146;48.210;16.234;2023-02-28T11:34:28;99815.53;;;3.74;59.22
51099;BME280;37146;48.210;16.234;2023-02-28T11:36:57;99820.81;;;4.47;58.71
51099;BME280;37146;48.210;16.234;2023-02-28T11:39:22;99811.50;;;4.18;58.51
51099;BME280;37146;48.210;16.234;2023-02-28T11:42:04;99818.13;;;3.78;59.88
51099;BME280;37146;48.210;16.234;2023-02-28T12:00:03;99802.50;;;3.55;60.12
51099;BME280;37146;48.210;16.234;2023-02-28T12:02:40;99795.06;;;3.91;61.80
51099;BME280;37146;48.210;16.234;2023-02-28T12:08:02;99802.53;;;4.30;58.25
51099;BME280;37146;48.210;16.234;2023-02-28T12:10:30;99797.41;;;4.14;58.50
51099;BME280;37146;48.210;16.234;2023-02-28T12:20:44;99797.91;;;5.02;56.96
51099;BME280;37146;48.210;16.234;2023-02-28T12:28:21;99788.28;;;4.37;58.03
51099;BME280;37146;48.210;16.234;2023-02-28T12:31:09;99781.97;;;5.05;56.28
51099;BME280;37146;48.210;16.234;2023-02-28T12:33:36;99768.03;;;4.92;56.09
51099;BME280;37146;48.210;16.234;2023-02-28T12:36:05;99764.22;;;5.09;55.67
51099;BME280;37146;48.210;16.234;2023-02-28T12:41:02;99770.28;;;4.61;55.25
51099;BME280;37146;48.210;16.234;2023-02-28T12:43:36;99762.84;;;4.27;56.57
51099;BME280;37146;48.210;16.234;2023-02-28T12:46:06;99761.63;;;4.49;57.04
51099;BME280;37146;48.210;16.234;2023-02-28T12:48:55;99769.25;;;4.71;56.55
51099;BME280;37146;48.210;16.234;2023-02-28T12:51:18;99759.81;;;3.86;56.68
51099;BME280;37146;48.210;16.234;2023-02-28T12:53:50;99760.25;;;4.21;57.21
51099;BME280;37146;48.210;16.234;2023-02-28T12:58:56;99765.50;;;4.24;56.62
51099;BME280;37146;48.210;16.234;2023-02-28T13:06:40;99764.97;;;3.98;56.32
51099;BME280;37146;48.210;16.234;2023-02-28T13:09:13;99763.59;;;4.35;55.85
51099;BME280;37146;48.210;16.234;2023-02-28T13:11:44;99755.91;;;4.15;56.81
51099;BME280;37146;48.210;16.234;2023-02-28T13:19:26;99762.44;;;4.55;55.21
51099;BME280;37146;48.210;16.234;2023-02-28T13:21:52;99759.69;;;4.61;54.40
51099;BME280;37146;48.210;16.234;2023-02-28T13:29:41;99739.06;;;4.82;53.90
51099;BME280;37146;48.210;16.234;2023-02-28T13:39:46;99740.41;;;5.06;53.59
51099;BME280;37146;48.210;16.234;2023-02-28T13:50:43;99762.06;;;4.18;54.83
51099;BME280;37146;48.210;16.234;2023-02-28T13:55:25;99755.63;;;4.37;55.10
51099;BME280;37146;48.210;16.234;2023-02-28T14:00:43;99751.72;;;4.62;54.04
51099;BME280;37146;48.210;16.234;2023-02-28T14:03:17;99743.28;;;4.36;53.99
51099;BME280;37146;48.210;16.234;2023-02-28T14:05:47;99744.66;;;4.63;53.58
51099;BME280;37146;48.210;16.234;2023-02-28T14:08:33;99746.72;;;4.42;53.43
51099;BME280;37146;48.210;16.234;2023-02-28T14:11:03;99742.03;;;5.13;53.36
51099;BME280;37146;48.210;16.234;2023-02-28T14:13:39;99740.19;;;4.67;54.33
51099;BME280;37146;48.210;16.234;2023-02-28T14:16:14;99742.00;;;5.16;53.78
51099;BME280;37146;48.210;16.234;2023-02-28T14:19:02;99748.56;;;4.95;52.71
51099;BME280;37146;48.210;16.234;2023-02-28T14:21:31;99744.94;;;4.41;52.83
51099;BME280;37146;48.210;16.234;2023-02-28T14:24:09;99737.22;;;4.29;53.49
51099;BME280;37146;48.210;16.234;2023-02-28T14:32:02;99738.38;;;4.67;53.46
51099;BME280;37146;48.210;16.234;2023-02-28T14:37:14;99730.75;;;4.47;53.21
51099;BME280;37146;48.210;16.234;2023-02-28T14:39:41;99729.78;;;4.53;53.18
51099;BME280;37146;48.210;16.234;2023-02-28T14:44:55;99731.13;;;4.22;54.40
51099;BME280;37146;48.210;16.234;2023-02-28T14:47:23;99727.53;;;4.26;54.58
51099;BME280;37146;48.210;16.234;2023-02-28T14:49:51;99734.78;;;4.13;54.70
51099;BME280;37146;48.210;16.234;2023-02-28T14:52:19;99746.66;;;3.81;55.54
51099;BME280;37146;48.210;16.234;2023-02-28T14:54:45;99735.22;;;3.76;55.75
51099;BME280;37146;48.210;16.234;2023-02-28T14:57:24;99740.50;;;3.79;56.54
51099;BME280;37146;48.210;16.234;2023-02-28T14:59:59;99735.56;;;3.51;56.93
51099;BME280;37146;48.210;16.234;2023-02-28T15:02:26;99735.63;;;3.42;57.12
51099;BME280;37146;48.210;16.234;2023-02-28T15:07:34;99737.06;;;3.72;57.04
51099;BME280;37146;48.210;16.234;2023-02-28T15:10:11;99739.78;;;3.65;57.10
51099;BME280;37146;48.210;16.234;2023-02-28T15:12:36;99736.34;;;3.58;57.02
51099;BME280;37146;48.210;16.234;2023-02-28T15:15:02;99729.41;;;3.49;56.71